sensor_id;sensor_type;location;lat;lon;timestamp;pressure;altitude;pressure_sealevel;temperature;humidity
11077;BME280;5591;42.626;23.380;2023-04-23T00:00:24;94153.00;;;9.81;100.00
11077;BME280;5591;42.626;23.380;2023-04-23T00:02:52;94156.28;;;9.69;100.00
11077;BME280;5591;42.626;23.380;2023-04-23T00:05:19;94167.00;;;9.73;100.00
11077;BME280;5591;42.626;23.380;2023-04-23T00:07:48;94147.97;;;9.65;100.00
11077;BME280;5591;42.626;23.380;2023-04-23T00:10:15;94149.91;;;9.57;100.00
11077;BME280;5591;42.626;23.380;2023-04-23T00:12:44;94140.09;;;9.65;100.00
11077;BME280;5591;42.626;23.380;2023-04-23T00:15:12;94135.72;;;9.51;100.00
11077;BME280;5591;42.626;23.380;2023-04-23T00:17:39;94133.94;;;9.37;100.00
11077;BME280;5591;42.626;23.380;2023-04-23T00:20:07;94147.31;;;9.28;100.00
11077;BME280;5591;42.626;23.380;2023-04-23T00:22:34;94151.53;;;9.43;100.00
11077;BME280;5591;42.626;23.380;2023-04-23T00:25:01;94142.22;;;9.41;100.00
11077;BME280;5591;42.626;23.380;2023-04-23T00:27:29;94150.00;;;9.34;100.00
11077;BME280;5591;42.626;23.380;2023-04-23T00:29:57;94111.75;;;9.19;100.00
11077;BME280;5591;42.626;23.380;2023-04-23T00:32:24;94155.69;;;9.38;100.00
11077;BME280;5591;42.626;23.380;2023-04-23T00:34:51;94138.91;;;9.32;100.00
11077;BME280;5591;42.626;23.380;2023-04-23T00:37:19;94151.38;;;9.16;100.00
11077;BME280;5591;42.626;23.380;2023-04-23T00:39:46;94146.31;;;9.29;100.00
11077;BME280;5591;42.626;23.380;2023-04-23T00:42:13;94135.75;;;9.22;100.00
11077;BME280;5591;42.626;23.380;2023-04-23T00:44:42;94107.72;;;9.16;100.00
11077;BME280;5591;42.626;23.380;2023-04-23T00:47:10;94141.75;;;9.52;100.00
11077;BME280;5591;42.626;23.380;2023-04-23T00:49:37;94141.75;;;9.52;100.00
11077;BME280;5591;42.626;23.380;2023-04-23T00:52:04;94129.22;;;9.47;100.00
11077;BME280;5591;42.626;23.380;2023-04-23T00:54:31;94134.34;;;9.55;100.00
11077;BME280;5591;42.626;23.380;2023-04-23T00:56:58;94136.91;;;9.49;100.00
11077;BME280;5591;42.626;23.380;2023-04-23T00:59:25;94153.16;;;9.44;100.00
11077;BME280;5591;42.626;23.380;2023-04-23T01:01:53;94136.81;;;9.42;100.00
11077;BME280;5591;42.626;23.380;2023-04-23T01:04:21;94134.50;;;9.33;100.00
11077;BME280;5591;42.626;23.380;2023-04-23T01:06:50;94126.03;;;9.16;100.00
11077;BME280;5591;42.626;23.380;2023-04-23T01:09:17;94141.53;;;9.18;100.00
11077;BME280;5591;42.626;23.380;2023-04-23T01:11:43;94140.97;;;9.37;100.00
11077;BME280;5591;42.626;23.380;2023-04-23T01:14:11;94137.59;;;9.57;100.00
11077;BME280;5591;42.626;23.380;2023-04-23T01:16:37;94129.22;;;9.47;100.00
11077;BME280;5591;42.626;23.380;2023-04-23T01:19:06;94130.59;;;9.43;100.00
11077;BME280;5591;42.626;23.380;2023-04-23T01:21:36;94129.06;;;9.20;100.00
11077;BME280;5591;42.626;23.380;2023-04-23T01:24:07;94136.56;;;9.37;100.00
11077;BME280;5591;42.626;23.380;2023-04-23T01:26:34;94096.78;;;9.13;100.00
11077;BME280;5591;42.626;23.380;2023-04-23T01:29:02;94142.91;;;9.28;100.00
11077;BME280;5591;42.626;23.380;2023-04-23T01:31:29;94139.69;;;9.47;100.00
11077;BME280;5591;42.626;23.380;2023-04-23T01:33:57;94121.13;;;9.28;100.00
11077;BME280;5591;42.626;23.380;2023-04-23T01:36:26;94144.59;;;9.36;100.00
11077;BME280;5591;42.626;23.380;2023-04-23T01:38:53;94142.78;;;9.36;100.00
11077;BME280;5591;42.626;23.380;2023-04-23T01:41:21;94149.22;;;9.19;100.00
11077;BME280;5591;42.626;23.380;2023-04-23T01:43:48;94148.28;;;9.41;100.00
11077;BME280;5591;42.626;23.380;2023-04-23T01:46:15;94134.84;;;9.15;100.00
11077;BME280;5591;42.626;23.380;2023-04-23T01:48:42;94146.16;;;9.16;100.00
11077;BME280;5591;42.626;23.380;2023-04-23T01:51:09;94119.09;;;8.80;100.00
11077;BME280;5591;42.626;23.380;2023-04-23T01:53:35;94159.22;;;8.87;100.00
11077;BME280;5591;42.626;23.380;2023-04-23T01:56:02;94155.97;;;8.70;100.00
11077;BME280;5591;42.626;23.380;2023-04-23T01:58:32;94101.13;;;8.48;100.00
11077;BME280;5591;42.626;23.380;2023-04-23T02:00:58;94159.03;;;8.74;100.00
11077;BME280;5591;42.626;23.380;2023-04-23T02:03:25;94155.84;;;8.49;100.00
11077;BME280;5591;42.626;23.380;2023-04-23T02:05:54;94136.34;;;8.37;100.00
11077;BME280;5591;42.626;23.380;2023-04-23T02:08:21;94160.63;;;8.60;100.00
11077;BME280;5591;42.626;23.380;2023-04-23T02:10:48;94156.09;;;8.40;100.00
11077;BME280;5591;42.626;23.380;2023-04-23T02:13:15;94163.22;;;8.31;100.00
11077;BME280;5591;42.626;23.380;2023-04-23T02:15:43;94157.78;;;8.33;100.00
11077;BME280;5591;42.626;23.380;2023-04-23T02:18:09;94155.00;;;8.34;100.00
11077;BME280;5591;42.626;23.380;2023-04-23T02:20:37;94158.00;;;8.46;100.00
11077;BME280;5591;42.626;23.380;2023-04-23T02:23:05;94156.66;;;8.50;100.00
11077;BME280;5591;42.626;23.380;2023-04-23T02:25:32;94164.78;;;8.55;100.00
11077;BME280;5591;42.626;23.380;2023-04-23T02:27:59;94114.97;;;8.34;100.00
11077;BME280;5591;42.626;23.380;2023-04-23T02:30:30;94160.28;;;8.49;100.00
11077;BME280;5591;42.626;23.380;2023-04-23T02:32:58;94162.06;;;8.48;100.00
11077;BME280;5591;42.626;23.380;2023-04-23T02:35:25;94154.53;;;8.31;100.00
11077;BME280;5591;42.626;23.380;2023-04-23T02:37:52;94155.38;;;8.46;100.00
11077;BME280;5591;42.626;23.380;2023-04-23T02:40:19;94147.81;;;8.51;100.00
11077;BME280;5591;42.626;23.380;2023-04-23T02:42:47;94084.69;;;8.02;100.00
11077;BME280;5591;42.626;23.380;2023-04-23T02:45:14;94140.97;;;8.50;100.00
11077;BME280;5591;42.626;23.380;2023-04-23T02:47:40;94155.03;;;8.49;100.00
11077;BME280;5591;42.626;23.380;2023-04-23T02:50:09;94145.84;;;8.53;100.00
11077;BME280;5591;42.626;23.380;2023-04-23T02:52:36;94150.19;;;8.60;100.00
11077;BME280;5591;42.626;23.380;2023-04-23T02:55:03;94158.28;;;8.51;100.00
11077;BME280;5591;42.626;23.380;2023-04-23T02:57:31;94161.53;;;8.53;100.00
11077;BME280;5591;42.626;23.380;2023-04-23T02:59:58;94149.06;;;8.40;100.00
11077;BME280;5591;42.626;23.380;2023-04-23T03:02:25;94159.28;;;8.50;100.00
11077;BME280;5591;42.626;23.380;2023-04-23T03:04:52;94154.00;;;8.35;100.00
11077;BME280;5591;42.626;23.380;2023-04-23T03:07:20;94164.47;;;8.35;100.00
11077;BME280;5591;42.626;23.380;2023-04-23T03:09:47;94166.69;;;8.24;100.00
11077;BME280;5591;42.626;23.380;2023-04-23T03:12:14;94184.91;;;8.09;100.00
11077;BME280;5591;42.626;23.380;2023-04-23T03:14:42;94167.03;;;7.98;100.00
11077;BME280;5591;42.626;23.380;2023-04-23T03:17:09;94172.19;;;8.06;100.00
11077;BME280;5591;42.626;23.380;2023-04-23T03:19:36;94164.94;;;7.94;100.00
11077;BME280;5591;42.626;23.380;2023-04-23T03:22:02;94172.00;;;7.85;100.00
11077;BME280;5591;42.626;23.380;2023-04-23T03:24:31;94118.47;;;7.59;100.00
11077;BME280;5591;42.626;23.380;2023-04-23T03:26:58;94169.56;;;7.84;100.00
11077;BME280;5591;42.626;23.380;2023-04-23T03:29:25;94168.34;;;7.94;100.00
11077;BME280;5591;42.626;23.380;2023-04-23T03:31:52;94170.50;;;7.91;100.00
11077;BME280;5591;42.626;23.380;2023-04-23T03:34:19;94169.25;;;7.79;100.00
11077;BME280;5591;42.626;23.380;2023-04-23T03:36:46;94175.38;;;7.94;100.00
11077;BME280;5591;42.626;23.380;2023-04-23T03:39:13;94164.63;;;7.89;100.00
11077;BME280;5591;42.626;23.380;2023-04-23T03:41:41;94179.84;;;7.85;100.00
11077;BME280;5591;42.626;23.380;2023-04-23T03:44:08;94180.72;;;8.00;100.00
11077;BME280;5591;42.626;23.380;2023-04-23T03:46:35;94173.16;;;8.05;100.00
11077;BME280;5591;42.626;23.380;2023-04-23T03:49:01;94180.66;;;8.08;100.00
11077;BME280;5591;42.626;23.380;2023-04-23T03:51:28;94180.22;;;8.05;100.00
11077;BME280;5591;42.626;23.380;2023-04-23T03:53:55;94128.19;;;7.73;100.00
11077;BME280;5591;42.626;23.380;2023-04-23T03:56:22;94191.38;;;8.21;100.00
11077;BME280;5591;42.626;23.380;2023-04-23T03:58:51;94192.38;;;8.20;100.00
11077;BME280;5591;42.626;23.380;2023-04-23T04:01:18;94188.00;;;8.35;100.00
11077;BME280;5591;42.626;23.380;2023-04-23T04:03:44;94188.28;;;8.40;100.00
11077;BME280;5591;42.626;23.380;2023-04-23T04:06:11;94193.97;;;8.44;100.00
11077;BME280;5591;42.626;23.380;2023-04-23T04:08:38;94200.09;;;8.36;100.00
11077;BME280;5591;42.626;23.380;2023-04-23T04:11:05;94191.50;;;8.28;100.00
11077;BME280;5591;42.626;23.380;2023-04-23T04:13:32;94194.91;;;8.51;100.00
11077;BME280;5591;42.626;23.380;2023-04-23T04:16:00;94197.00;;;8.55;100.00
11077;BME280;5591;42.626;23.380;2023-04-23T04:18:27;94199.25;;;8.58;100.00
11077;BME280;5591;42.626;23.380;2023-04-23T04:20:54;94192.41;;;8.35;100.00
11077;BME280;5591;42.626;23.380;2023-04-23T04:23:21;94191.22;;;8.60;100.00
11077;BME280;5591;42.626;23.380;2023-04-23T04:25:48;94195.66;;;8.74;100.00
11077;BME280;5591;42.626;23.380;2023-04-23T04:28:15;94196.19;;;8.69;100.00
11077;BME280;5591;42.626;23.380;2023-04-23T04:30:42;94195.13;;;8.78;100.00
11077;BME280;5591;42.626;23.380;2023-04-23T04:33:10;94202.72;;;8.88;100.00
11077;BME280;5591;42.626;23.380;2023-04-23T04:35:39;94202.56;;;9.04;100.00
11077;BME280;5591;42.626;23.380;2023-04-23T04:38:06;94187.56;;;8.98;100.00
11077;BME280;5591;42.626;23.380;2023-04-23T04:40:33;94212.56;;;9.00;100.00
11077;BME280;5591;42.626;23.380;2023-04-23T04:43:00;94200.56;;;8.91;100.00
11077;BME280;5591;42.626;23.380;2023-04-23T04:45:29;94205.47;;;8.94;100.00
11077;BME280;5591;42.626;23.380;2023-04-23T04:47:56;94208.34;;;8.99;100.00
11077;BME280;5591;42.626;23.380;2023-04-23T04:50:25;94217.00;;;9.00;100.00
11077;BME280;5591;42.626;23.380;2023-04-23T04:52:52;94187.88;;;8.66;100.00
11077;BME280;5591;42.626;23.380;2023-04-23T04:55:19;94228.75;;;9.04;100.00
11077;BME280;5591;42.626;23.380;2023-04-23T04:57:46;94215.75;;;9.10;100.00
11077;BME280;5591;42.626;23.380;2023-04-23T05:00:21;94172.34;;;9.16;100.00
11077;BME280;5591;42.626;23.380;2023-04-23T05:02:49;94179.09;;;9.39;100.00
11077;BME280;5591;42.626;23.380;2023-04-23T05:05:17;94207.56;;;9.92;100.00
11077;BME280;5591;42.626;23.380;2023-04-23T05:07:45;94212.38;;;9.74;100.00
11077;BME280;5591;42.626;23.380;2023-04-23T05:10:12;94231.78;;;10.08;100.00
11077;BME280;5591;42.626;23.380;2023-04-23T05:12:40;94202.22;;;10.21;100.00
11077;BME280;5591;42.626;23.380;2023-04-23T05:15:08;94210.66;;;10.37;100.00
11077;BME280;5591;42.626;23.380;2023-04-23T05:17:37;94206.72;;;10.69;100.00
11077;BME280;5591;42.626;23.380;2023-04-23T05:20:05;94205.53;;;10.92;100.00
11077;BME280;5591;42.626;23.380;2023-04-23T05:22:35;94241.31;;;11.00;100.00
11077;BME280;5591;42.626;23.380;2023-04-23T05:25:04;94218.38;;;11.15;100.00
11077;BME280;5591;42.626;23.380;2023-04-23T08:59:54;94161.81;;;21.26;51.65
11077;BME280;5591;42.626;23.380;2023-04-23T09:02:21;94164.66;;;21.77;52.05
11077;BME280;5591;42.626;23.380;2023-04-23T09:04:48;94101.09;;;20.53;53.05
11077;BME280;5591;42.626;23.380;2023-04-23T09:07:18;94170.59;;;20.95;52.94
11077;BME280;5591;42.626;23.380;2023-04-23T09:09:44;94170.75;;;20.83;53.95
11077;BME280;5591;42.626;23.380;2023-04-23T09:12:11;94165.72;;;21.50;52.42
11077;BME280;5591;42.626;23.380;2023-04-23T09:14:38;94159.97;;;20.73;53.77
11077;BME280;5591;42.626;23.380;2023-04-23T09:17:06;94167.91;;;20.21;55.31
11077;BME280;5591;42.626;23.380;2023-04-23T09:19:34;94174.75;;;20.17;55.35
11077;BME280;5591;42.626;23.380;2023-04-23T09:22:03;94170.66;;;20.52;54.10
11077;BME280;5591;42.626;23.380;2023-04-23T09:24:30;94162.97;;;21.03;52.24
11077;BME280;5591;42.626;23.380;2023-04-23T09:26:57;94163.59;;;20.62;52.32
11077;BME280;5591;42.626;23.380;2023-04-23T09:29:24;94100.63;;;20.35;52.31
11077;BME280;5591;42.626;23.380;2023-04-23T09:31:53;94085.19;;;19.73;53.83
11077;BME280;5591;42.626;23.380;2023-04-23T09:34:23;94158.63;;;20.07;53.69
11077;BME280;5591;42.626;23.380;2023-04-23T09:36:52;94160.13;;;20.19;53.00
11077;BME280;5591;42.626;23.380;2023-04-23T09:39:21;94154.38;;;21.01;51.81
11077;BME280;5591;42.626;23.380;2023-04-23T09:41:50;94130.69;;;21.41;51.04
11077;BME280;5591;42.626;23.380;2023-04-23T09:44:18;94132.81;;;21.39;51.44
11077;BME280;5591;42.626;23.380;2023-04-23T09:46:47;94130.44;;;21.43;50.65
11077;BME280;5591;42.626;23.380;2023-04-23T09:49:14;94133.72;;;21.18;49.70
11077;BME280;5591;42.626;23.380;2023-04-23T09:51:44;94139.75;;;20.30;51.29
11077;BME280;5591;42.626;23.380;2023-04-23T09:54:12;94137.81;;;20.73;51.13
11077;BME280;5591;42.626;23.380;2023-04-23T09:56:40;94129.13;;;21.09;50.16
11077;BME280;5591;42.626;23.380;2023-04-23T09:59:21;94129.97;;;21.51;48.42
11077;BME280;5591;42.626;23.380;2023-04-23T10:01:48;94127.94;;;21.31;47.69
11077;BME280;5591;42.626;23.380;2023-04-23T10:04:17;94098.81;;;19.55;50.56
11077;BME280;5591;42.626;23.380;2023-04-23T10:06:47;94123.38;;;20.69;48.46
11077;BME280;5591;42.626;23.380;2023-04-23T10:09:14;94124.44;;;20.41;48.26
11077;BME280;5591;42.626;23.380;2023-04-23T10:11:41;94113.03;;;21.04;48.27
11077;BME280;5591;42.626;23.380;2023-04-23T10:14:08;94118.91;;;21.37;47.86
11077;BME280;5591;42.626;23.380;2023-04-23T10:16:36;94107.91;;;21.65;46.99
11077;BME280;5591;42.626;23.380;2023-04-23T10:19:05;94115.03;;;21.96;47.14
11077;BME280;5591;42.626;23.380;2023-04-23T10:21:33;94094.75;;;21.17;47.03
11077;BME280;5591;42.626;23.380;2023-04-23T10:24:02;94096.09;;;20.88;47.89
11077;BME280;5591;42.626;23.380;2023-04-23T10:26:30;94102.59;;;20.71;48.26
11077;BME280;5591;42.626;23.380;2023-04-23T10:28:59;94103.41;;;20.45;49.29
11077;BME280;5591;42.626;23.380;2023-04-23T10:31:26;94093.56;;;21.40;48.40
11077;BME280;5591;42.626;23.380;2023-04-23T10:33:54;94093.06;;;21.43;46.67
11077;BME280;5591;42.626;23.380;2023-04-23T10:36:22;94086.66;;;21.44;47.17
11077;BME280;5591;42.626;23.380;2023-04-23T10:38:50;94090.47;;;22.04;45.12
11077;BME280;5591;42.626;23.380;2023-04-23T10:41:21;94083.69;;;22.43;44.34
11077;BME280;5591;42.626;23.380;2023-04-23T10:43:52;94074.34;;;22.61;41.43
11077;BME280;5591;42.626;23.380;2023-04-23T10:46:29;94077.63;;;23.02;41.92
11077;BME280;5591;42.626;23.380;2023-04-23T10:49:10;94081.47;;;22.25;40.72
11077;BME280;5591;42.626;23.380;2023-04-23T10:51:39;94075.47;;;20.26;45.56
11077;BME280;5591;42.626;23.380;2023-04-23T10:54:08;94074.22;;;20.91;45.87
11077;BME280;5591;42.626;23.380;2023-04-23T10:56:38;94052.94;;;21.38;45.55
11077;BME280;5591;42.626;23.380;2023-04-23T10:59:06;94068.94;;;21.74;45.21
11077;BME280;5591;42.626;23.380;2023-04-23T11:01:33;94068.34;;;20.63;44.83
11077;BME280;5591;42.626;23.380;2023-04-23T11:04:18;94048.78;;;21.52;44.37
11077;BME280;5591;42.626;23.380;2023-04-23T11:06:56;94058.56;;;22.59;43.22
11077;BME280;5591;42.626;23.380;2023-04-23T11:09:30;94042.00;;;22.67;42.23
11077;BME280;5591;42.626;23.380;2023-04-23T11:12:00;94054.59;;;23.11;41.77
11077;BME280;5591;42.626;23.380;2023-04-23T11:14:42;94032.59;;;22.45;41.34
11077;BME280;5591;42.626;23.380;2023-04-23T11:17:10;94004.78;;;23.05;40.54
11077;BME280;5591;42.626;23.380;2023-04-23T11:19:38;94036.06;;;23.45;40.99
11077;BME280;5591;42.626;23.380;2023-04-23T11:22:06;94041.66;;;24.32;38.50
11077;BME280;5591;42.626;23.380;2023-04-23T11:24:35;94040.81;;;24.85;37.19
11077;BME280;5591;42.626;23.380;2023-04-23T11:27:08;94032.16;;;24.98;37.62
11077;BME280;5591;42.626;23.380;2023-04-23T11:29:37;94033.72;;;24.65;37.43
11077;BME280;5591;42.626;23.380;2023-04-23T11:32:04;94026.88;;;25.73;36.12
11077;BME280;5591;42.626;23.380;2023-04-23T11:34:35;94016.34;;;26.97;33.52
11077;BME280;5591;42.626;23.380;2023-04-23T11:37:02;94024.03;;;27.41;31.88
11077;BME280;5591;42.626;23.380;2023-04-23T11:39:29;94013.41;;;28.92;30.93
11077;BME280;5591;42.626;23.380;2023-04-23T11:41:56;94002.13;;;30.34;29.35
11077;BME280;5591;42.626;23.380;2023-04-23T11:44:24;93974.69;;;31.63;28.19
11077;BME280;5591;42.626;23.380;2023-04-23T11:46:52;93987.31;;;32.71;26.11
11077;BME280;5591;42.626;23.380;2023-04-23T11:49:19;94006.28;;;32.51;26.67
11077;BME280;5591;42.626;23.380;2023-04-23T11:51:46;94003.81;;;32.37;25.87
11077;BME280;5591;42.626;23.380;2023-04-23T11:54:13;93987.47;;;32.95;24.47
11077;BME280;5591;42.626;23.380;2023-04-23T11:56:41;93993.69;;;32.75;24.85
11077;BME280;5591;42.626;23.380;2023-04-23T11:59:08;93979.44;;;33.64;23.43
11077;BME280;5591;42.626;23.380;2023-04-23T12:01:44;93982.41;;;34.15;24.28
11077;BME280;5591;42.626;23.380;2023-04-23T12:04:13;93983.50;;;33.90;23.88
11077;BME280;5591;42.626;23.380;2023-04-23T12:06:42;93971.28;;;34.32;23.43
11077;BME280;5591;42.626;23.380;2023-04-23T12:09:09;93968.22;;;35.21;22.17
11077;BME280;5591;42.626;23.380;2023-04-23T12:11:37;93980.88;;;32.18;24.04
11077;BME280;5591;42.626;23.380;2023-04-23T12:14:05;93949.38;;;32.17;24.21
11077;BME280;5591;42.626;23.380;2023-04-23T12:16:38;93952.53;;;33.50;23.26
11077;BME280;5591;42.626;23.380;2023-04-23T12:19:12;93964.09;;;33.92;24.81
11077;BME280;5591;42.626;23.380;2023-04-23T12:21:50;93973.66;;;32.51;25.54
11077;BME280;5591;42.626;23.380;2023-04-23T12:24:19;93977.63;;;31.24;26.78
11077;BME280;5591;42.626;23.380;2023-04-23T12:26:48;93971.66;;;29.81;27.69
11077;BME280;5591;42.626;23.380;2023-04-23T12:29:17;93965.13;;;30.30;27.65
11077;BME280;5591;42.626;23.380;2023-04-23T12:31:43;93972.22;;;29.39;27.80
11077;BME280;5591;42.626;23.380;2023-04-23T12:34:13;93961.69;;;30.80;26.86
11077;BME280;5591;42.626;23.380;2023-04-23T12:36:43;93952.34;;;32.82;24.29
11077;BME280;5591;42.626;23.380;2023-04-23T12:39:24;93936.81;;;33.35;24.06
11077;BME280;5591;42.626;23.380;2023-04-23T12:41:53;93952.91;;;33.08;23.46
11077;BME280;5591;42.626;23.380;2023-04-23T12:44:21;93911.56;;;31.12;24.57
11077;BME280;5591;42.626;23.380;2023-04-23T12:46:49;93964.56;;;30.92;25.27
11077;BME280;5591;42.626;23.380;2023-04-23T12:49:21;93961.50;;;29.95;26.26
11077;BME280;5591;42.626;23.380;2023-04-23T13:15:22;93941.06;;;25.53;29.74
11077;BME280;5591;42.626;23.380;2023-04-23T13:17:48;93954.09;;;25.41;29.71
11077;BME280;5591;42.626;23.380;2023-04-23T13:20:15;93967.53;;;25.13;30.80
11077;BME280;5591;42.626;23.380;2023-04-23T13:22:42;93961.53;;;25.26;31.08
11077;BME280;5591;42.626;23.380;2023-04-23T13:25:09;93956.69;;;25.51;31.65
11077;BME280;5591;42.626;23.380;2023-04-23T13:27:36;93964.81;;;25.46;31.90
11077;BME280;5591;42.626;23.380;2023-04-23T13:30:03;93962.69;;;25.15;32.67
11077;BME280;5591;42.626;23.380;2023-04-23T13:32:31;93956.28;;;24.82;32.41
11077;BME280;5591;42.626;23.380;2023-04-23T13:34:58;93956.28;;;25.63;31.96
11077;BME280;5591;42.626;23.380;2023-04-23T13:37:28;93953.91;;;25.79;30.87
11077;BME280;5591;42.626;23.380;2023-04-23T13:39:55;93952.22;;;26.99;29.95
11077;BME280;5591;42.626;23.380;2023-04-23T13:42:22;93947.72;;;28.21;28.20
11077;BME280;5591;42.626;23.380;2023-04-23T13:44:49;93937.56;;;30.36;27.60
11077;BME280;5591;42.626;23.380;2023-04-23T13:47:16;93927.75;;;31.46;26.09
11077;BME280;5591;42.626;23.380;2023-04-23T13:49:44;93925.34;;;33.62;24.16
11077;BME280;5591;42.626;23.380;2023-04-23T13:52:11;93918.69;;;34.44;23.76
11077;BME280;5591;42.626;23.380;2023-04-23T13:54:37;93846.41;;;34.50;23.53
11077;BME280;5591;42.626;23.380;2023-04-23T13:57:04;93917.31;;;35.28;22.83
11077;BME280;5591;42.626;23.380;2023-04-23T13:59:32;93924.25;;;36.96;21.38
11077;BME280;5591;42.626;23.380;2023-04-23T14:01:58;93920.44;;;37.58;21.33
11077;BME280;5591;42.626;23.380;2023-04-23T14:04:25;93925.00;;;36.78;20.92
11077;BME280;5591;42.626;23.380;2023-04-23T14:06:53;93923.22;;;34.52;22.56
11077;BME280;5591;42.626;23.380;2023-04-23T14:09:20;93928.75;;;32.24;24.32
11077;BME280;5591;42.626;23.380;2023-04-23T14:11:47;93934.63;;;29.68;26.33
11077;BME280;5591;42.626;23.380;2023-04-23T14:14:14;93920.34;;;29.15;26.22
11077;BME280;5591;42.626;23.380;2023-04-23T14:16:42;93930.03;;;29.69;25.70
11077;BME280;5591;42.626;23.380;2023-04-23T14:19:09;93927.00;;;30.09;26.14
11077;BME280;5591;42.626;23.380;2023-04-23T14:21:35;93936.63;;;31.17;25.85
11077;BME280;5591;42.626;23.380;2023-04-23T14:24:14;93931.69;;;31.02;24.28
11077;BME280;5591;42.626;23.380;2023-04-23T14:26:42;93930.19;;;29.42;24.91
11077;BME280;5591;42.626;23.380;2023-04-23T14:29:17;93928.81;;;31.24;23.52
11077;BME280;5591;42.626;23.380;2023-04-23T14:31:44;93926.50;;;31.89;23.20
11077;BME280;5591;42.626;23.380;2023-04-23T14:34:11;93917.97;;;30.56;24.94
11077;BME280;5591;42.626;23.380;2023-04-23T14:36:38;93918.97;;;29.48;26.71
11077;BME280;5591;42.626;23.380;2023-04-23T14:39:05;93911.94;;;29.78;27.63
11077;BME280;5591;42.626;23.380;2023-04-23T14:41:33;93905.69;;;29.08;28.40
11077;BME280;5591;42.626;23.380;2023-04-23T14:44:00;93910.81;;;30.77;27.18
11077;BME280;5591;42.626;23.380;2023-04-23T14:46:27;93901.38;;;32.70;25.31
11077;BME280;5591;42.626;23.380;2023-04-23T14:48:54;93904.31;;;31.50;25.92
11077;BME280;5591;42.626;23.380;2023-04-23T14:51:21;93909.88;;;29.92;27.02
11077;BME280;5591;42.626;23.380;2023-04-23T14:53:47;93911.97;;;28.95;26.13
11077;BME280;5591;42.626;23.380;2023-04-23T14:56:15;93923.41;;;28.21;26.74
11077;BME280;5591;42.626;23.380;2023-04-23T14:58:44;93916.09;;;25.94;29.20
11077;BME280;5591;42.626;23.380;2023-04-23T15:01:11;93920.03;;;25.78;29.73
11077;BME280;5591;42.626;23.380;2023-04-23T15:03:37;93923.38;;;24.67;31.55
11077;BME280;5591;42.626;23.380;2023-04-23T15:06:05;93860.13;;;24.51;32.54
11077;BME280;5591;42.626;23.380;2023-04-23T15:08:32;93914.28;;;27.09;30.74
11077;BME280;5591;42.626;23.380;2023-04-23T15:10:59;93913.25;;;27.24;30.11
11077;BME280;5591;42.626;23.380;2023-04-23T15:13:48;93916.91;;;26.32;30.87
11077;BME280;5591;42.626;23.380;2023-04-23T15:16:25;93918.53;;;25.73;31.87
11077;BME280;5591;42.626;23.380;2023-04-23T15:18:54;93894.59;;;25.94;31.37
11077;BME280;5591;42.626;23.380;2023-04-23T15:21:21;93914.72;;;25.97;31.53
11077;BME280;5591;42.626;23.380;2023-04-23T15:23:48;93914.25;;;26.45;30.88
11077;BME280;5591;42.626;23.380;2023-04-23T15:26:14;93907.88;;;27.37;29.99
11077;BME280;5591;42.626;23.380;2023-04-23T15:28:41;93906.00;;;28.27;28.89
11077;BME280;5591;42.626;23.380;2023-04-23T15:31:09;93902.31;;;30.11;27.09
11077;BME280;5591;42.626;23.380;2023-04-23T15:33:36;93897.72;;;31.59;25.71
11077;BME280;5591;42.626;23.380;2023-04-23T15:36:04;93843.13;;;31.06;25.29
11077;BME280;5591;42.626;23.380;2023-04-23T15:38:31;93896.63;;;33.20;23.94
11077;BME280;5591;42.626;23.380;2023-04-23T15:40:58;93882.81;;;34.18;23.71
11077;BME280;5591;42.626;23.380;2023-04-23T15:43:25;93886.13;;;33.43;23.56
11077;BME280;5591;42.626;23.380;2023-04-23T15:45:52;93851.78;;;33.50;23.52
11077;BME280;5591;42.626;23.380;2023-04-23T15:48:24;93890.31;;;33.28;23.47
11077;BME280;5591;42.626;23.380;2023-04-23T15:50:51;93875.28;;;32.08;25.18
11077;BME280;5591;42.626;23.380;2023-04-23T15:53:18;93891.09;;;33.29;24.88
11077;BME280;5591;42.626;23.380;2023-04-23T15:55:47;93893.38;;;33.27;25.63
11077;BME280;5591;42.626;23.380;2023-04-23T15:58:14;93893.28;;;32.21;26.01
11077;BME280;5591;42.626;23.380;2023-04-23T16:00:41;93895.94;;;31.71;26.68
11077;BME280;5591;42.626;23.380;2023-04-23T16:03:08;93894.63;;;31.32;27.10
11077;BME280;5591;42.626;23.380;2023-04-23T16:05:36;93895.59;;;31.27;27.07
11077;BME280;5591;42.626;23.380;2023-04-23T16:08:03;93898.06;;;31.58;27.13
11077;BME280;5591;42.626;23.380;2023-04-23T16:10:30;93892.63;;;31.95;26.56
11077;BME280;5591;42.626;23.380;2023-04-23T16:12:58;93878.38;;;31.69;26.52
11077;BME280;5591;42.626;23.380;2023-04-23T16:15:27;93892.88;;;31.27;27.25
11077;BME280;5591;42.626;23.380;2023-04-23T16:17:54;93896.72;;;29.51;28.89
11077;BME280;5591;42.626;23.380;2023-04-23T16:20:23;93892.47;;;28.84;29.79
11077;BME280;5591;42.626;23.380;2023-04-23T16:22:51;93895.75;;;28.95;30.17
11077;BME280;5591;42.626;23.380;2023-04-23T16:25:18;93888.31;;;29.00;30.02
11077;BME280;5591;42.626;23.380;2023-04-23T16:27:45;93887.50;;;28.56;31.05
11077;BME280;5591;42.626;23.380;2023-04-23T16:30:12;93891.88;;;27.95;31.62
11077;BME280;5591;42.626;23.380;2023-04-23T16:32:39;93892.34;;;27.02;33.15
11077;BME280;5591;42.626;23.380;2023-04-23T16:35:06;93896.88;;;27.20;32.88
11077;BME280;5591;42.626;23.380;2023-04-23T16:37:33;93895.22;;;26.23;34.31
11077;BME280;5591;42.626;23.380;2023-04-23T16:40:01;93885.16;;;25.55;35.40
11077;BME280;5591;42.626;23.380;2023-04-23T16:42:28;93895.03;;;25.36;36.44
11077;BME280;5591;42.626;23.380;2023-04-23T16:44:55;93907.97;;;23.52;38.66
11077;BME280;5591;42.626;23.380;2023-04-23T16:47:22;93899.91;;;22.44;40.90
11077;BME280;5591;42.626;23.380;2023-04-23T16:49:49;93905.88;;;21.49;42.65
11077;BME280;5591;42.626;23.380;2023-04-23T16:52:16;93908.66;;;21.08;43.29
11077;BME280;5591;42.626;23.380;2023-04-23T16:54:42;93909.47;;;20.35;45.17
11077;BME280;5591;42.626;23.380;2023-04-23T16:57:10;93826.38;;;19.76;45.44
11077;BME280;5591;42.626;23.380;2023-04-23T16:59:37;93917.16;;;19.74;46.88